createdAt,value
2022-08-28T00:00:01.117Z,63.94
2022-08-28T00:02:28.612Z,63.97
2022-08-28T00:04:55.500Z,64.06
2022-08-28T00:07:22.292Z,63.93
2022-08-28T00:09:48.983Z,63.83
2022-08-28T00:12:15.786Z,63.89
2022-08-28T00:14:42.725Z,63.83
2022-08-28T00:17:09.597Z,64.14
2022-08-28T00:19:38.686Z,64.42
2022-08-28T00:22:06.813Z,63.07
2022-08-28T00:24:34.312Z,62.84
2022-08-28T00:27:19.693Z,62.99
2022-08-28T00:29:46.493Z,63.73
2022-08-28T00:32:13.820Z,63.58
2022-08-28T00:34:43.273Z,63.56
2022-08-28T00:40:32.376Z,63.13
2022-08-28T00:43:19.076Z,63.66
2022-08-28T00:47:29.120Z,64.17
2022-08-28T00:53:36.360Z,64.60
2022-08-28T01:03:25.207Z,65.05
2022-08-28T01:14:15.281Z,66.02
2022-08-28T01:20:53.595Z,66.64
2022-08-28T01:23:57.897Z,66.69
2022-08-28T01:26:39.635Z,66.96
2022-08-28T01:29:15.444Z,66.59
2022-08-28T01:31:58.455Z,67.24
2022-08-28T01:34:40.813Z,66.63
2022-08-28T01:53:25.424Z,66.80
2022-08-28T01:56:17.007Z,66.63
2022-08-28T01:59:03.466Z,67.08
2022-08-28T02:01:35.482Z,68.12
2022-08-28T02:05:05.997Z,68.00
2022-08-28T02:08:05.072Z,67.88
2022-08-28T02:10:42.396Z,67.96
2022-08-28T02:13:35.590Z,67.15
2022-08-28T02:16:38.229Z,68.00
2022-08-28T02:19:23.598Z,68.05
2022-08-28T02:22:14.003Z,68.21
2022-08-28T02:25:40.368Z,67.94
2022-08-28T02:28:43.538Z,68.35
2022-08-28T02:31:19.417Z,68.21
2022-08-28T02:34:01.597Z,68.53
2022-08-28T02:36:43.708Z,68.84
2022-08-28T02:39:21.814Z,68.24
2022-08-28T02:42:12.314Z,69.10
2022-08-28T02:44:53.090Z,68.86
2022-08-28T02:47:53.811Z,68.87
2022-08-28T02:50:23.636Z,69.48
2022-08-28T02:53:04.507Z,68.92
2022-08-28T02:55:34.229Z,69.85
2022-08-28T02:58:04.477Z,69.43
2022-08-28T03:00:35.061Z,69.14
2022-08-28T03:03:05.708Z,70.05
2022-08-28T03:05:35.944Z,69.42
2022-08-28T03:08:09.864Z,70.07
2022-08-28T03:13:59.735Z,69.74
2022-08-28T03:19:47.242Z,70.50
2022-08-28T03:22:16.789Z,70.43
2022-08-28T03:24:48.664Z,70.63
2022-08-28T03:27:18.352Z,71.06
2022-08-28T03:29:53.239Z,71.52
2022-08-28T03:32:29.258Z,71.40
2022-08-28T03:34:57.833Z,71.94
2022-08-28T03:37:25.205Z,71.00
2022-08-28T03:39:54.764Z,71.03
2022-08-28T03:42:24.924Z,71.51
2022-08-28T03:44:52.158Z,72.20
2022-08-28T03:47:22.574Z,72.21
2022-08-28T03:49:57.905Z,71.75
2022-08-28T03:52:25.791Z,71.48
2022-08-28T03:54:57.655Z,71.67
2022-08-28T03:57:29.397Z,71.87
2022-08-28T04:02:44.721Z,72.53
2022-08-28T04:05:17.513Z,71.32
2022-08-28T04:07:45.357Z,72.15
2022-08-28T04:10:18.046Z,72.24
2022-08-28T04:12:52.362Z,72.59
2022-08-28T04:15:22.032Z,72.53
2022-08-28T04:18:16.368Z,71.99
2022-08-28T04:21:18.224Z,71.69
2022-08-28T04:23:48.093Z,71.64
2022-08-28T04:26:41.882Z,71.66
2022-08-28T04:29:27.530Z,72.75
2022-08-28T04:31:58.438Z,72.73
2022-08-28T04:34:25.773Z,71.73
2022-08-28T04:36:53.220Z,72.30
2022-08-28T04:39:20.485Z,72.55
2022-08-28T04:41:47.478Z,71.65
2022-08-28T04:44:28.424Z,71.44
2022-08-28T05:04:41.439Z,72.85
2022-08-28T05:08:01.450Z,72.47
2022-08-28T05:25:01.562Z,72.82
2022-08-28T05:27:30.856Z,72.21
2022-08-28T05:30:21.258Z,71.99
2022-08-28T05:32:50.639Z,71.68
2022-08-28T05:35:20.143Z,72.56
2022-08-28T05:37:57.654Z,72.23
2022-08-28T05:41:35.472Z,71.67
2022-08-28T05:43:26.359Z,72.06
2022-08-28T05:46:05.982Z,71.76
2022-08-28T05:48:49.454Z,72.10
2022-08-28T05:51:28.326Z,73.11
2022-08-28T05:54:43.113Z,72.20
2022-08-28T05:57:46.235Z,72.49
2022-08-28T06:00:42.874Z,72.66
2022-08-28T06:03:09.941Z,72.85
2022-08-28T06:05:39.758Z,72.65
2022-08-28T06:08:06.860Z,72.81
2022-08-28T06:10:45.920Z,73.03
2022-08-28T06:13:23.159Z,73.00
2022-08-28T06:15:58.201Z,72.68
2022-08-28T06:18:34.866Z,71.56
2022-08-28T06:21:06.508Z,71.19
2022-08-28T06:23:56.991Z,70.96
2022-08-28T06:26:58.118Z,70.77
2022-08-28T06:29:35.741Z,70.56
2022-08-28T06:32:10.546Z,71.18
2022-08-28T06:35:12.051Z,71.39
2022-08-28T06:57:07.759Z,68.65
2022-08-28T06:59:51.084Z,67.88
2022-08-28T07:09:41.725Z,68.20
2022-08-28T07:12:25.815Z,67.65
2022-08-28T07:14:59.160Z,68.00
2022-08-28T07:17:41.729Z,68.37
2022-08-28T07:20:40.805Z,68.22
2022-08-28T07:24:07.079Z,67.50
2022-08-28T07:27:06.742Z,67.07
2022-08-28T07:29:46.184Z,67.42
2022-08-28T07:36:33.987Z,66.44
2022-08-28T07:47:36.341Z,66.03
2022-08-28T07:50:03.781Z,65.49
2022-08-28T07:52:36.593Z,65.16
2022-08-28T07:55:30.393Z,64.97
2022-08-28T07:58:14.984Z,64.25
2022-08-28T08:03:38.662Z,63.39
2022-08-28T08:06:08.462Z,63.40
2022-08-28T08:08:43.370Z,63.37
2022-08-28T08:11:49.098Z,63.53
2022-08-28T08:14:17.119Z,63.02
2022-08-28T08:17:29.436Z,62.08
2022-08-28T08:20:11.505Z,61.77
2022-08-28T08:23:16.727Z,61.79
2022-08-28T08:26:38.054Z,61.61
2022-08-28T08:33:01.682Z,61.49
2022-08-28T08:33:04.705Z,60.96
2022-08-28T08:36:21.474Z,61.18
2022-08-28T08:42:45.078Z,60.34
2022-08-28T08:45:35.449Z,60.15
2022-08-28T08:48:34.495Z,59.65
2022-08-28T08:52:13.788Z,59.73
2022-08-28T08:55:11.896Z,59.92
2022-08-28T08:59:00.917Z,59.36
2022-08-28T09:20:16.644Z,57.17
2022-08-28T09:24:17.848Z,57.45
2022-08-28T09:26:42.411Z,56.84
2022-08-28T09:47:12.591Z,56.22
2022-08-28T09:49:42.786Z,56.20
2022-08-28T09:52:44.989Z,56.52
2022-08-28T09:56:06.026Z,55.64
2022-08-28T09:59:25.175Z,54.64
2022-08-28T10:02:11.930Z,54.40
2022-08-28T10:05:45.383Z,54.24
2022-08-28T10:08:27.035Z,54.50
2022-08-28T10:10:56.075Z,54.04
2022-08-28T10:13:35.087Z,54.33
2022-08-28T10:20:14.562Z,54.77
2022-08-28T10:23:17.760Z,54.76
2022-08-28T10:30:35.264Z,55.06
2022-08-28T10:33:43.396Z,54.58
2022-08-28T10:40:22.110Z,54.58
2022-08-28T10:57:58.093Z,53.74
2022-08-28T11:00:28.254Z,53.12
2022-08-28T11:03:33.556Z,52.92
2022-08-28T11:06:44.087Z,53.21
2022-08-28T11:10:18.073Z,53.15
2022-08-28T11:12:59.924Z,52.95
2022-08-28T11:15:36.432Z,51.90
2022-08-28T11:22:27.080Z,51.44
2022-08-28T11:25:07.667Z,51.40
2022-08-28T11:27:40.086Z,51.71
2022-08-28T11:30:09.729Z,52.21
2022-08-28T11:33:15.055Z,51.14
2022-08-28T11:36:21.701Z,51.34
2022-08-28T11:38:55.748Z,51.34
2022-08-28T11:53:54.179Z,49.65
2022-08-28T13:52:09.536Z,44.46
2022-08-28T13:58:42.963Z,44.41
2022-08-28T14:01:30.588Z,44.28
2022-08-28T14:04:43.307Z,44.00
2022-08-28T14:18:02.486Z,43.19
2022-08-28T14:20:37.428Z,43.18
2022-08-28T14:23:08.768Z,43.92
2022-08-28T14:25:47.792Z,43.77
2022-08-28T14:28:46.938Z,44.11
2022-08-28T14:31:35.254Z,42.89
2022-08-28T14:34:05.141Z,43.00
2022-08-28T14:36:39.973Z,42.94
2022-08-28T14:39:12.830Z,43.18
2022-08-28T14:41:46.134Z,43.11
2022-08-28T14:44:26.125Z,43.42
2022-08-28T14:46:59.408Z,43.27
2022-08-28T14:49:28.392Z,43.92
2022-08-28T14:51:56.995Z,43.78
2022-08-28T14:54:24.883Z,43.35
2022-08-28T14:56:54.791Z,43.39
2022-08-28T15:00:00.383Z,43.57
2022-08-28T15:03:09.142Z,43.93
2022-08-28T15:05:42.304Z,43.31
2022-08-28T15:08:14.452Z,43.21
2022-08-28T15:11:24.229Z,43.17
2022-08-28T15:14:08.899Z,43.07
2022-08-28T15:16:46.910Z,43.04
2022-08-28T15:19:17.809Z,43.04
2022-08-28T15:21:51.230Z,43.06
2022-08-28T15:24:21.564Z,42.55
2022-08-28T15:26:48.503Z,42.31
2022-08-28T15:29:16.561Z,42.06
2022-08-28T15:31:47.024Z,41.56
2022-08-28T15:34:19.760Z,42.16
2022-08-28T15:36:55.881Z,41.63
2022-08-28T15:43:27.925Z,41.12
2022-08-28T15:46:01.022Z,40.52
2022-08-28T15:48:32.917Z,40.76
2022-08-28T15:51:03.571Z,40.43
2022-08-28T15:53:34.482Z,40.75
2022-08-28T15:56:11.018Z,40.65
2022-08-28T15:58:38.478Z,40.03
2022-08-28T16:01:20.590Z,40.33
2022-08-28T16:04:26.682Z,39.55
2022-08-28T16:07:00.377Z,39.38
2022-08-28T16:09:27.758Z,39.33
2022-08-28T16:12:20.577Z,40.01
2022-08-28T16:15:23.827Z,39.45
2022-08-28T16:21:26.832Z,39.36
2022-08-28T16:23:55.702Z,39.27
2022-08-28T16:26:23.319Z,39.80
2022-08-28T16:28:52.895Z,39.28
2022-08-28T16:31:21.841Z,39.57
2022-08-28T16:33:49.872Z,39.22
2022-08-28T16:36:18.557Z,39.32
2022-08-28T16:38:59.633Z,39.78
2022-08-28T16:41:28.865Z,39.86
2022-08-28T16:43:59.280Z,39.89
2022-08-28T16:46:37.311Z,39.67
2022-08-28T16:49:13.508Z,39.55
2022-08-28T16:51:44.847Z,39.84
2022-08-28T16:54:11.893Z,39.94
2022-08-28T16:56:39.787Z,39.89
2022-08-28T16:59:10.420Z,40.89
2022-08-28T17:01:42.635Z,40.74
2022-08-28T17:04:10.557Z,40.73
2022-08-28T17:06:37.669Z,40.38
2022-08-28T17:09:07.874Z,40.43
2022-08-28T17:11:35.300Z,40.18
2022-08-28T17:14:08.091Z,40.87
2022-08-28T17:17:13.026Z,40.18
2022-08-28T17:20:33.239Z,40.90
2022-08-28T17:23:09.621Z,40.32
2022-08-28T17:26:13.451Z,41.27
2022-08-28T17:28:41.860Z,41.45
2022-08-28T17:35:40.332Z,41.73
2022-08-28T17:38:17.198Z,41.91
2022-08-28T17:44:43.577Z,42.27
2022-08-28T17:47:31.003Z,42.31
2022-08-28T17:50:06.165Z,42.67
2022-08-28T18:11:36.916Z,43.18
2022-08-28T18:14:12.276Z,43.62
2022-08-28T18:16:39.492Z,43.71
2022-08-28T18:19:08.852Z,43.49
2022-08-28T18:21:37.378Z,43.60
2022-08-28T18:24:05.125Z,43.88
2022-08-28T18:26:32.581Z,44.29
2022-08-28T18:29:08.349Z,44.02
2022-08-28T18:31:38.870Z,44.02
2022-08-28T18:34:10.982Z,44.63
2022-08-28T18:36:45.244Z,44.36
2022-08-28T18:39:15.314Z,44.45
2022-08-28T18:41:58.795Z,44.70
2022-08-28T18:44:25.884Z,44.67
2022-08-28T18:46:55.448Z,44.54
2022-08-28T18:49:23.085Z,44.56
2022-08-28T18:51:50.770Z,44.71
2022-08-28T18:54:19.068Z,45.24
2022-08-28T18:56:48.745Z,45.26
2022-08-28T18:59:19.911Z,45.15
2022-08-28T19:01:47.168Z,45.28
2022-08-28T19:04:14.135Z,45.34
2022-08-28T19:06:44.445Z,45.52
2022-08-28T19:09:19.166Z,45.42
2022-08-28T19:11:49.077Z,45.34
2022-08-28T19:14:15.985Z,45.36
2022-08-28T19:16:45.917Z,45.55
2022-08-28T19:19:19.330Z,45.96
2022-08-28T19:21:46.742Z,46.06
2022-08-28T19:24:46.363Z,46.74
2022-08-28T19:27:13.917Z,46.54
2022-08-28T19:29:40.803Z,46.94
2022-08-28T19:32:08.197Z,46.09
2022-08-28T19:34:35.074Z,46.88
2022-08-28T19:37:02.013Z,47.17
2022-08-28T19:40:06.505Z,47.61
2022-08-28T19:42:39.469Z,47.14
2022-08-28T19:45:08.895Z,47.24
2022-08-28T19:47:41.236Z,47.23
2022-08-28T19:50:14.647Z,47.73
2022-08-28T19:52:43.188Z,47.82
2022-08-28T19:55:18.855Z,47.94
2022-08-28T20:07:20.702Z,48.48
2022-08-28T20:10:35.416Z,48.75
2022-08-28T20:13:03.039Z,48.59
2022-08-28T20:15:44.531Z,49.06
2022-08-28T20:18:14.302Z,49.82
2022-08-28T20:32:42.744Z,51.26
2022-08-28T20:35:52.406Z,51.57
2022-08-28T20:38:54.609Z,52.03
2022-08-28T20:45:38.148Z,53.11
2022-08-28T20:48:33.145Z,53.65
2022-08-28T20:51:56.457Z,54.37
2022-08-28T20:54:46.246Z,54.02
2022-08-28T21:00:38.321Z,54.90
2022-08-28T21:06:28.609Z,55.58
2022-08-28T21:09:11.957Z,55.66
2022-08-28T21:12:05.557Z,57.05
2022-08-28T21:14:37.286Z,56.77
2022-08-28T21:17:22.621Z,56.73
2022-08-28T21:20:49.596Z,56.88
2022-08-28T21:23:27.013Z,57.10
2022-08-28T21:26:11.213Z,57.52
2022-08-28T21:28:38.613Z,57.69
2022-08-28T21:31:13.712Z,57.69
2022-08-28T21:33:41.906Z,57.49
2022-08-28T21:36:10.336Z,57.54
2022-08-28T21:38:37.588Z,57.95
2022-08-28T21:41:05.814Z,58.44
2022-08-28T21:43:32.877Z,58.37
2022-08-28T21:46:03.629Z,58.11
2022-08-28T21:48:41.467Z,58.45
2022-08-28T21:51:12.546Z,58.56
2022-08-28T21:53:41.927Z,58.61
2022-08-28T21:56:08.851Z,58.88
2022-08-28T21:58:37.117Z,59.31
2022-08-28T22:01:08.292Z,59.20
2022-08-28T22:03:35.261Z,59.43
2022-08-28T22:06:02.322Z,59.41
2022-08-28T22:08:37.043Z,59.26
2022-08-28T22:11:03.868Z,59.82
2022-08-28T22:13:30.666Z,60.39
2022-08-28T22:15:57.502Z,60.28
2022-08-28T22:18:24.390Z,60.96
2022-08-28T22:21:20.523Z,61.27
2022-08-28T22:23:50.187Z,62.06
2022-08-28T22:26:20.894Z,61.72
2022-08-28T22:28:51.333Z,61.74
2022-08-28T22:31:19.484Z,61.53
2022-08-28T22:33:46.570Z,61.68
2022-08-28T22:36:16.022Z,62.17
2022-08-28T22:38:49.785Z,62.10
2022-08-28T22:41:20.298Z,62.31
2022-08-28T22:43:49.741Z,62.29
2022-08-28T22:46:17.415Z,61.95
2022-08-28T22:48:45.306Z,61.98
2022-08-28T22:51:14.618Z,62.44
2022-08-28T22:53:44.574Z,62.79
2022-08-28T22:56:12.811Z,62.96
2022-08-28T22:58:40.220Z,63.06
2022-08-28T23:01:16.028Z,63.03
2022-08-28T23:03:44.168Z,63.33
2022-08-28T23:06:13.790Z,63.60
2022-08-28T23:08:48.518Z,63.56
2022-08-28T23:20:47.237Z,64.13
2022-08-28T23:33:41.179Z,64.72
2022-08-28T23:36:08.407Z,64.99
2022-08-28T23:38:43.196Z,64.89
2022-08-28T23:41:16.616Z,64.97
2022-08-28T23:43:44.344Z,64.74
2022-08-28T23:46:18.404Z,64.87
2022-08-28T23:49:01.334Z,65.33
2022-08-28T23:51:29.118Z,65.74
2022-08-28T23:54:00.571Z,65.53
2022-08-28T23:56:39.217Z,65.76
2022-08-28T23:59:06.964Z,66.65
